Flugplatz Anspach/Taunus

Für EDFA sind keine METAR/TAF Berichte vorhanden.
Es werden die Flugwettermeldungen vom Flugplatz Frankfurt am Main International in 28 km Entfernung angezeigt.

Bericht für EDDF

vom 23.08. um 13:20 UTC

Wind 7 kt aus 80°

Sichtweite 10 km oder mehr

gute Sicht, keine Wolken < 5000 ft, keine CB, keine Wettererscheinungen (CAVOK)

Temperatur 28.0°C

Taupunkt 8.0°C

Luftfeuchtigkeit 28%

Luftdruck 1023 hPa

keine wesentliche Wetteränderung innerhalb den nächsten 2 Stunden zu erwarten

EDDF 231320Z 08007KT 030V150 CAVOK 28/08 Q1023 NOSIG

Prognose für EDDF

vom 23.08. um 00:00 UTC

Zwischen 00:00 UTC und 00:00 UTC

Wind 6 kt aus 60°

Sichtweite 10 km oder mehr

keine signifikanten Wettererscheinungen

keine Wolken

TAF EDDF 231100Z 2312/2418 06006KT CAVOK
Impressum